createdAt,value
2018-12-04T00:00:30.091Z,11.00
2018-12-04T00:02:57.679Z,11.00
2018-12-04T00:05:25.520Z,11.00
2018-12-04T00:07:53.373Z,11.00
2018-12-04T00:10:21.051Z,11.00
2018-12-04T00:12:48.583Z,11.00
2018-12-04T00:15:16.329Z,11.00
2018-12-04T00:17:43.847Z,11.10
2018-12-04T00:20:12.087Z,11.00
2018-12-04T00:22:39.643Z,11.00
2018-12-04T00:25:07.589Z,11.00
2018-12-04T00:27:35.151Z,11.00
2018-12-04T00:30:03.152Z,11.00
2018-12-04T00:32:30.692Z,10.90
2018-12-04T00:34:58.645Z,10.90
2018-12-04T00:37:26.788Z,10.90
2018-12-04T00:39:54.831Z,10.90
2018-12-04T00:42:22.359Z,10.90
2018-12-04T00:44:50.142Z,10.90
2018-12-04T00:47:18.188Z,10.90
2018-12-04T00:49:45.886Z,10.90
2018-12-04T00:52:13.410Z,11.00
2018-12-04T00:54:41.374Z,10.90
2018-12-04T00:57:08.945Z,11.00
2018-12-04T00:59:37.142Z,11.00
2018-12-04T01:02:04.742Z,11.00
2018-12-04T01:04:32.476Z,11.00
2018-12-04T01:07:00.010Z,11.00
2018-12-04T01:09:27.844Z,11.10
2018-12-04T01:11:55.374Z,11.10
2018-12-04T01:14:23.520Z,11.10
2018-12-04T01:16:51.066Z,11.10
2018-12-04T01:19:18.848Z,11.10
2018-12-04T01:21:46.374Z,11.10
2018-12-04T01:24:14.179Z,11.10
2018-12-04T01:26:41.860Z,11.10
2018-12-04T01:29:09.903Z,11.10
2018-12-04T01:31:38.274Z,11.10
2018-12-04T01:34:06.046Z,11.10
2018-12-04T01:36:33.883Z,11.10
2018-12-04T01:39:01.787Z,11.10
2018-12-04T01:41:29.320Z,11.10
2018-12-04T01:43:57.122Z,11.10
2018-12-04T01:46:25.338Z,11.10
2018-12-04T01:48:53.244Z,11.10
2018-12-04T01:51:20.761Z,11.10
2018-12-04T01:53:48.491Z,11.20
2018-12-04T01:56:16.026Z,11.20
2018-12-04T01:58:43.892Z,11.20
2018-12-04T02:01:11.962Z,11.20
2018-12-04T02:03:39.982Z,11.20
2018-12-04T02:06:07.530Z,11.20
2018-12-04T02:08:35.332Z,11.20
2018-12-04T02:11:02.861Z,11.10
2018-12-04T02:13:30.677Z,11.10
2018-12-04T02:15:58.242Z,11.10
2018-12-04T02:18:26.000Z,11.10
2018-12-04T02:20:53.869Z,11.10
2018-12-04T02:23:21.400Z,11.10
2018-12-04T02:25:49.252Z,11.10
2018-12-04T02:28:17.070Z,11.10
2018-12-04T02:30:44.610Z,11.10
2018-12-04T02:33:12.392Z,11.00
2018-12-04T02:35:40.271Z,11.10
2018-12-04T02:38:07.803Z,11.10
2018-12-04T02:40:35.585Z,11.10
2018-12-04T02:43:03.186Z,11.10
2018-12-04T02:45:30.914Z,11.10
2018-12-04T02:47:58.982Z,11.10
2018-12-04T02:50:26.843Z,11.10
2018-12-04T02:52:54.368Z,11.00
2018-12-04T02:55:21.902Z,10.90
2018-12-04T02:57:51.458Z,10.90
2018-12-04T03:00:19.142Z,10.90
2018-12-04T03:02:46.672Z,10.80
2018-12-04T03:05:14.627Z,10.80
2018-12-04T03:07:42.187Z,10.70
2018-12-04T03:10:10.379Z,10.70
2018-12-04T03:12:37.935Z,10.70
2018-12-04T03:15:05.915Z,10.70
2018-12-04T03:17:33.471Z,10.70
2018-12-04T03:20:01.230Z,10.70
2018-12-04T03:22:28.770Z,10.70
2018-12-04T03:24:56.937Z,10.70
2018-12-04T03:27:24.479Z,10.70
2018-12-04T03:29:52.288Z,10.70
2018-12-04T03:32:20.306Z,10.80
2018-12-04T03:34:47.845Z,10.80
2018-12-04T03:37:15.892Z,10.80
2018-12-04T03:39:43.525Z,10.80
2018-12-04T03:42:11.070Z,10.80
2018-12-04T03:44:39.104Z,10.80
2018-12-04T03:47:07.100Z,10.80
2018-12-04T03:49:34.838Z,10.80
2018-12-04T03:52:02.456Z,10.90
2018-12-04T03:54:30.141Z,10.90
2018-12-04T03:56:57.677Z,10.90
2018-12-04T03:59:25.447Z,10.90
2018-12-04T04:01:52.976Z,10.90
2018-12-04T04:04:20.959Z,10.90
2018-12-04T04:06:48.496Z,10.90
2018-12-04T04:09:16.313Z,10.90
2018-12-04T04:11:43.860Z,10.90
2018-12-04T04:14:11.686Z,10.90
2018-12-04T04:16:39.224Z,10.90
2018-12-04T04:19:07.002Z,10.90
2018-12-04T04:21:34.633Z,10.90
2018-12-04T04:24:02.694Z,10.80
2018-12-04T04:26:30.233Z,10.80
2018-12-04T04:28:58.023Z,10.80
2018-12-04T04:31:25.560Z,10.80
2018-12-04T04:33:53.346Z,10.70
2018-12-04T04:36:20.884Z,10.70
2018-12-04T04:38:48.685Z,10.70
2018-12-04T04:41:16.242Z,10.70
2018-12-04T04:43:44.268Z,10.60
2018-12-04T04:46:12.326Z,10.60
2018-12-04T04:48:40.054Z,10.60
2018-12-04T04:51:07.604Z,10.60
2018-12-04T04:53:35.324Z,10.50
2018-12-04T04:56:02.878Z,10.40
2018-12-04T04:58:31.059Z,10.30
2018-12-04T05:00:58.595Z,10.20
2018-12-04T05:03:26.432Z,10.10
2018-12-04T05:05:53.966Z,10.00
2018-12-04T05:08:21.743Z,9.90
2018-12-04T05:10:49.271Z,9.80
2018-12-04T05:13:17.317Z,9.80
2018-12-04T05:15:45.105Z,9.80
2018-12-04T05:18:12.793Z,9.70
2018-12-04T05:20:40.324Z,9.70
2018-12-04T05:23:08.127Z,9.60
2018-12-04T05:25:35.665Z,9.60
2018-12-04T05:28:03.510Z,9.60
2018-12-04T05:30:31.055Z,9.60
2018-12-04T05:32:58.973Z,9.50
2018-12-04T05:35:26.498Z,9.40
2018-12-04T05:37:54.302Z,9.40
2018-12-04T05:40:21.922Z,9.40
2018-12-04T05:42:50.136Z,9.30
2018-12-04T05:45:17.860Z,9.20
2018-12-04T05:47:45.935Z,9.20
2018-12-04T05:50:13.827Z,9.10
2018-12-04T05:52:41.872Z,9.00
2018-12-04T05:55:09.850Z,9.00
2018-12-04T05:57:37.370Z,8.90
2018-12-04T06:00:07.878Z,8.90
2018-12-04T06:02:36.050Z,8.90
2018-12-04T06:05:04.414Z,8.80
2018-12-04T06:07:32.039Z,8.80
2018-12-04T06:09:59.918Z,8.80
2018-12-04T06:12:28.898Z,8.70
2018-12-04T06:14:56.530Z,8.70
2018-12-04T06:17:24.075Z,8.70
2018-12-04T06:19:52.027Z,8.60
2018-12-04T06:22:19.564Z,8.60
2018-12-04T06:24:47.525Z,8.60
2018-12-04T06:27:15.438Z,8.60
2018-12-04T06:29:43.090Z,8.60
2018-12-04T06:32:10.611Z,8.60
2018-12-04T06:34:38.505Z,8.70
2018-12-04T06:37:06.052Z,8.60
2018-12-04T06:39:33.721Z,8.60
2018-12-04T06:42:01.942Z,8.60
2018-12-04T06:44:29.660Z,8.60
2018-12-04T06:46:57.679Z,8.60
2018-12-04T06:49:25.777Z,8.60
2018-12-04T06:51:53.324Z,8.60
2018-12-04T06:54:21.133Z,8.60
2018-12-04T06:56:48.656Z,8.60
2018-12-04T06:59:16.176Z,8.60
2018-12-04T07:01:43.912Z,8.70
2018-12-04T07:04:11.554Z,8.70
2018-12-04T07:06:39.446Z,8.60
2018-12-04T07:09:06.968Z,8.60
2018-12-04T07:11:34.610Z,8.70
2018-12-04T07:14:02.218Z,8.60
2018-12-04T07:16:29.871Z,8.60
2018-12-04T07:18:57.447Z,8.60
2018-12-04T07:21:25.422Z,8.60
2018-12-04T07:23:53.446Z,8.60
2018-12-04T07:26:21.314Z,8.60
2018-12-04T07:28:48.847Z,8.60
2018-12-04T07:31:16.680Z,8.60
2018-12-04T07:33:44.848Z,8.60
2018-12-04T07:36:12.566Z,8.60
2018-12-04T07:38:40.089Z,8.60
2018-12-04T07:41:07.926Z,8.60
2018-12-04T07:43:36.097Z,8.60
2018-12-04T07:46:04.268Z,8.60
2018-12-04T07:48:31.810Z,8.70
2018-12-04T07:50:59.608Z,8.70
2018-12-04T07:53:27.138Z,8.70
2018-12-04T07:55:54.943Z,8.70
2018-12-04T07:58:23.108Z,8.70
2018-12-04T08:00:50.854Z,8.70
2018-12-04T08:03:18.412Z,8.70
2018-12-04T08:05:46.242Z,8.80
2018-12-04T08:08:13.770Z,8.80
2018-12-04T08:10:41.722Z,8.80
2018-12-04T08:13:09.242Z,8.80
2018-12-04T08:15:37.051Z,8.80
2018-12-04T08:18:04.584Z,8.90
2018-12-04T08:20:32.252Z,8.80
2018-12-04T08:23:00.048Z,8.90
2018-12-04T08:25:27.937Z,8.80
2018-12-04T08:27:55.486Z,8.70
2018-12-04T08:30:23.137Z,8.80
2018-12-04T08:32:50.845Z,8.70
2018-12-04T08:35:19.095Z,8.70
2018-12-04T08:37:46.636Z,8.70
2018-12-04T08:40:14.472Z,8.70
2018-12-04T08:42:42.012Z,8.70
2018-12-04T08:45:10.431Z,8.70
2018-12-04T08:47:38.046Z,8.70
2018-12-04T08:50:06.150Z,8.80
2018-12-04T08:52:34.022Z,8.80
2018-12-04T08:55:01.557Z,8.90
2018-12-04T08:57:29.591Z,9.00
2018-12-04T08:59:57.108Z,9.00
2018-12-04T09:02:24.865Z,8.90
2018-12-04T09:04:52.544Z,9.00
2018-12-04T09:07:20.064Z,9.10
2018-12-04T09:09:47.868Z,9.10
2018-12-04T09:12:15.417Z,9.10
2018-12-04T09:14:43.384Z,9.10
2018-12-04T09:17:11.052Z,9.10
2018-12-04T09:19:38.614Z,9.00
2018-12-04T09:22:06.383Z,8.90
2018-12-04T09:24:34.025Z,8.90
2018-12-04T09:27:05.449Z,8.70
2018-12-04T09:29:31.497Z,8.70
2018-12-04T09:31:59.669Z,8.70
2018-12-04T09:34:29.923Z,8.80
2018-12-04T09:36:57.220Z,8.80
2018-12-04T09:39:24.920Z,8.70
2018-12-04T09:41:52.589Z,8.60
2018-12-04T09:44:20.222Z,8.60
2018-12-04T09:46:48.724Z,8.60
2018-12-04T09:49:16.251Z,8.70
2018-12-04T09:51:44.056Z,8.80
2018-12-04T09:54:11.592Z,8.80
2018-12-04T09:56:39.536Z,8.80
2018-12-04T09:59:07.093Z,8.70
2018-12-04T10:01:35.272Z,8.80
2018-12-04T10:04:02.820Z,8.80
2018-12-04T10:06:30.841Z,8.90
2018-12-04T10:08:58.384Z,9.10
2018-12-04T10:11:26.439Z,9.10
2018-12-04T10:13:54.001Z,9.20
2018-12-04T10:16:21.694Z,9.20
2018-12-04T10:18:49.239Z,9.30
2018-12-04T10:21:17.012Z,9.20
2018-12-04T10:23:44.551Z,9.20
2018-12-04T10:26:12.416Z,9.20
2018-12-04T10:28:39.952Z,9.10
2018-12-04T10:31:09.916Z,9.00
2018-12-04T10:33:37.526Z,8.90
2018-12-04T10:36:05.544Z,8.90
2018-12-04T10:38:33.095Z,8.90
2018-12-04T10:41:01.075Z,8.80
2018-12-04T10:43:28.613Z,8.80
2018-12-04T10:45:57.012Z,8.80
2018-12-04T10:48:24.570Z,8.80
2018-12-04T10:50:52.588Z,8.70
2018-12-04T10:53:20.129Z,8.70
2018-12-04T10:55:48.272Z,8.80
2018-12-04T10:58:18.414Z,8.70
2018-12-04T11:00:51.979Z,8.80
2018-12-04T11:03:21.625Z,8.80
2018-12-04T11:05:49.363Z,8.80
2018-12-04T11:08:16.885Z,8.80
2018-12-04T11:10:46.328Z,8.80
2018-12-04T11:13:13.982Z,8.80
2018-12-04T11:15:41.525Z,8.70
2018-12-04T11:18:09.479Z,8.70
2018-12-04T11:20:37.344Z,8.70
2018-12-04T11:23:04.877Z,8.70
2018-12-04T11:25:32.755Z,8.70
2018-12-04T11:28:00.299Z,8.70
2018-12-04T11:30:28.441Z,8.70
2018-12-04T11:32:55.973Z,8.60
2018-12-04T11:35:23.759Z,8.60
2018-12-04T11:37:51.297Z,8.60
2018-12-04T11:40:19.308Z,8.60
2018-12-04T11:42:46.849Z,8.60
2018-12-04T11:45:14.979Z,8.60
2018-12-04T11:47:42.942Z,8.60
2018-12-04T11:50:10.643Z,8.60
2018-12-04T11:52:38.419Z,8.50
2018-12-04T11:55:06.118Z,8.50
2018-12-04T11:57:33.974Z,8.50
2018-12-04T12:00:01.512Z,8.50
2018-12-04T12:02:29.621Z,8.50
2018-12-04T12:04:57.166Z,8.50
2018-12-04T12:07:25.034Z,8.60
2018-12-04T12:09:52.628Z,8.70
2018-12-04T12:12:20.646Z,8.80
2018-12-04T12:14:48.180Z,8.80
2018-12-04T12:17:16.195Z,8.90
2018-12-04T12:19:43.744Z,8.90
2018-12-04T12:22:11.692Z,9.00
2018-12-04T12:24:39.318Z,9.10
2018-12-04T12:27:07.250Z,9.20
2018-12-04T12:29:34.787Z,9.30
2018-12-04T12:32:02.860Z,9.20
2018-12-04T12:34:30.395Z,9.20
2018-12-04T12:36:58.180Z,9.00
2018-12-04T12:39:26.235Z,8.80
2018-12-04T12:41:53.947Z,8.60
2018-12-04T12:44:21.507Z,8.40
2018-12-04T12:46:49.742Z,8.20
2018-12-04T12:49:17.298Z,8.00
2018-12-04T12:51:45.238Z,7.90
2018-12-04T12:54:12.822Z,7.90
2018-12-04T12:56:40.385Z,7.70
2018-12-04T12:59:08.057Z,7.70
2018-12-04T13:01:35.684Z,7.60
2018-12-04T13:04:03.698Z,7.60
2018-12-04T13:06:31.256Z,7.50
2018-12-04T13:08:59.455Z,7.50
2018-12-04T13:11:27.012Z,7.50
2018-12-04T13:13:54.710Z,7.40
2018-12-04T13:16:22.255Z,7.50
2018-12-04T13:18:50.109Z,7.50
2018-12-04T13:21:17.642Z,7.50
2018-12-04T13:23:46.332Z,7.50
2018-12-04T13:26:14.198Z,7.50
2018-12-04T13:28:42.428Z,7.50
2018-12-04T13:31:09.992Z,7.50
2018-12-04T13:33:37.796Z,7.50
2018-12-04T13:36:05.847Z,7.40
2018-12-04T13:38:34.295Z,7.40
2018-12-04T13:41:02.127Z,7.40
2018-12-04T13:43:30.247Z,7.40
2018-12-04T13:45:58.282Z,7.40
2018-12-04T13:48:26.300Z,7.40
2018-12-04T13:50:53.843Z,7.40
2018-12-04T13:53:21.734Z,7.40
2018-12-04T13:55:49.279Z,7.40
2018-12-04T13:58:17.496Z,7.40
2018-12-04T14:00:46.362Z,7.40
2018-12-04T14:03:14.562Z,7.50
2018-12-04T14:05:42.214Z,7.50
2018-12-04T14:08:10.013Z,7.50
2018-12-04T14:10:37.599Z,7.40
2018-12-04T14:13:05.670Z,7.40
2018-12-04T14:15:33.366Z,7.40
2018-12-04T14:18:01.126Z,7.40
2018-12-04T14:20:28.652Z,7.40
2018-12-04T14:22:56.878Z,7.40
2018-12-04T14:25:24.504Z,7.40
2018-12-04T14:27:52.622Z,7.40
2018-12-04T14:30:20.146Z,7.30
2018-12-04T14:32:47.917Z,7.30
2018-12-04T14:35:15.534Z,7.30
2018-12-04T14:37:43.452Z,7.20
2018-12-04T14:40:11.133Z,7.30
2018-12-04T14:42:39.343Z,7.30
2018-12-04T14:45:07.522Z,7.30
2018-12-04T14:47:36.169Z,7.30
2018-12-04T14:50:04.852Z,7.40
2018-12-04T14:52:32.682Z,7.40
2018-12-04T14:55:00.364Z,7.30
2018-12-04T14:57:28.406Z,7.30
2018-12-04T14:59:56.659Z,7.20
2018-12-04T15:02:24.977Z,7.10
2018-12-04T15:04:52.551Z,7.10
2018-12-04T15:07:20.695Z,7.00
2018-12-04T15:09:48.735Z,7.00
2018-12-04T15:12:17.176Z,6.90
2018-12-04T15:14:44.739Z,6.90
2018-12-04T15:17:13.016Z,6.80
2018-12-04T15:19:40.688Z,6.80
2018-12-04T15:22:08.336Z,6.80
2018-12-04T15:24:36.423Z,6.80
2018-12-04T15:27:06.487Z,6.70
2018-12-04T15:29:34.945Z,6.70
2018-12-04T15:32:02.631Z,6.60
2018-12-04T15:34:30.642Z,6.60
2018-12-04T15:36:58.198Z,6.60
2018-12-04T15:39:26.073Z,6.60
2018-12-04T15:41:53.941Z,6.50
2018-12-04T15:44:21.988Z,6.50
2018-12-04T15:46:50.033Z,6.60
2018-12-04T15:49:19.177Z,6.60
2018-12-04T15:51:47.212Z,6.60
2018-12-04T15:54:16.761Z,6.50
2018-12-04T15:56:44.504Z,6.60
2018-12-04T15:59:13.625Z,6.50
2018-12-04T16:01:43.341Z,6.50
2018-12-04T16:04:11.637Z,6.50
2018-12-04T16:06:39.961Z,6.40
2018-12-04T16:09:09.083Z,6.40
2018-12-04T16:11:37.479Z,6.40
2018-12-04T16:14:05.035Z,6.40
2018-12-04T16:16:33.208Z,6.40
2018-12-04T16:19:03.822Z,6.40
2018-12-04T16:21:33.071Z,6.40
2018-12-04T16:24:01.170Z,6.40
2018-12-04T16:26:31.474Z,6.40
2018-12-04T16:29:01.698Z,6.30
2018-12-04T16:31:34.301Z,6.30
2018-12-04T16:34:03.921Z,6.30
2018-12-04T16:36:33.531Z,6.20
2018-12-04T16:39:01.877Z,6.20
2018-12-04T16:41:31.604Z,6.20
2018-12-04T16:44:03.109Z,6.10
2018-12-04T16:46:31.843Z,6.10
2018-12-04T16:49:03.823Z,6.10
2018-12-04T16:51:33.455Z,6.00
2018-12-04T16:54:03.739Z,6.00
2018-12-04T16:56:37.211Z,6.10
2018-12-04T16:59:04.774Z,6.00
2018-12-04T17:01:32.800Z,6.00
2018-12-04T17:04:01.453Z,6.00
2018-12-04T17:06:30.678Z,6.00
2018-12-04T17:08:58.671Z,5.90
2018-12-04T17:11:26.702Z,5.90
2018-12-04T17:13:54.267Z,6.00
2018-12-04T17:16:22.804Z,6.00
2018-12-04T17:18:52.200Z,6.00
2018-12-04T17:21:20.085Z,6.10
2018-12-04T17:23:47.616Z,6.10
2018-12-04T17:26:15.602Z,6.10
2018-12-04T17:28:43.167Z,6.10
2018-12-04T17:31:10.946Z,6.10
2018-12-04T17:33:38.505Z,6.10
2018-12-04T17:36:06.619Z,6.10
2018-12-04T17:38:34.158Z,6.10
2018-12-04T17:41:01.846Z,6.20
2018-12-04T17:43:29.561Z,6.30
2018-12-04T17:45:57.934Z,6.30
2018-12-04T17:48:25.658Z,6.30
2018-12-04T17:50:54.038Z,6.30
2018-12-04T17:53:21.573Z,6.20
2018-12-04T17:55:49.250Z,6.20
2018-12-04T17:58:17.219Z,6.10
2018-12-04T18:00:44.927Z,5.90
2018-12-04T18:03:12.466Z,5.90
2018-12-04T18:05:40.629Z,5.80
2018-12-04T18:08:08.161Z,5.70
2018-12-04T18:10:35.823Z,5.60
2018-12-04T18:13:03.606Z,5.50
2018-12-04T18:15:31.171Z,5.40
2018-12-04T18:17:59.134Z,5.40
2018-12-04T18:20:26.906Z,5.30
2018-12-04T18:22:54.583Z,5.30
2018-12-04T18:25:22.375Z,5.20
2018-12-04T18:27:49.908Z,5.20
2018-12-04T18:30:17.765Z,5.30
2018-12-04T18:32:45.302Z,5.30
2018-12-04T18:35:13.227Z,5.40
2018-12-04T18:37:40.773Z,5.40
2018-12-04T18:40:08.956Z,5.40
2018-12-04T18:42:37.092Z,5.40
2018-12-04T18:45:05.934Z,5.50
2018-12-04T18:47:33.927Z,5.50
2018-12-04T18:50:01.467Z,5.60
2018-12-04T18:52:29.256Z,5.60
2018-12-04T18:54:56.831Z,5.70
2018-12-04T18:57:24.621Z,5.70
2018-12-04T18:59:52.167Z,5.70
2018-12-04T19:02:20.158Z,5.80
2018-12-04T19:04:47.694Z,5.80
2018-12-04T19:07:15.376Z,5.90
2018-12-04T19:09:42.928Z,5.90
2018-12-04T19:12:11.352Z,5.90
2018-12-04T19:14:38.913Z,5.90
2018-12-04T19:17:06.844Z,5.80
2018-12-04T19:19:34.390Z,5.70
2018-12-04T19:22:02.173Z,5.70
2018-12-04T19:24:30.439Z,5.60
2018-12-04T19:26:58.888Z,5.50
2018-12-04T19:29:26.447Z,5.50
2018-12-04T19:31:54.464Z,5.50
2018-12-04T19:34:22.011Z,5.50
2018-12-04T19:36:49.797Z,5.40
2018-12-04T19:39:17.658Z,5.40
2018-12-04T19:41:45.208Z,5.40
2018-12-04T19:44:13.583Z,5.30
2018-12-04T19:46:41.663Z,5.30
2018-12-04T19:49:09.195Z,5.30
2018-12-04T19:51:37.797Z,5.20
2018-12-04T19:54:05.422Z,5.20
2018-12-04T19:56:33.228Z,5.10
2018-12-04T19:59:00.763Z,5.10
2018-12-04T20:01:28.299Z,5.00
2018-12-04T20:03:56.112Z,5.00
2018-12-04T20:06:23.774Z,5.00
2018-12-04T20:08:52.791Z,5.00
2018-12-04T20:11:20.332Z,4.90
2018-12-04T20:13:48.564Z,4.90
2018-12-04T20:16:16.090Z,4.80
2018-12-04T20:18:43.933Z,4.80
2018-12-04T20:21:12.923Z,4.80
2018-12-04T20:23:40.684Z,4.80
2018-12-04T20:26:08.228Z,4.80
2018-12-04T20:28:36.019Z,4.70
2018-12-04T20:31:03.649Z,4.70
2018-12-04T20:33:31.754Z,4.70
2018-12-04T20:35:59.318Z,4.70
2018-12-04T20:38:27.066Z,4.70
2018-12-04T20:40:54.595Z,4.70
2018-12-04T20:43:22.385Z,4.70
2018-12-04T20:45:50.576Z,4.60
2018-12-04T20:48:18.589Z,4.60
2018-12-04T20:50:46.125Z,4.60
2018-12-04T20:53:14.063Z,4.60
2018-12-04T20:55:41.600Z,4.50
2018-12-04T20:58:09.793Z,4.50
2018-12-04T21:00:37.337Z,4.50
2018-12-04T21:03:05.217Z,4.50
2018-12-04T21:05:32.757Z,4.50
2018-12-04T21:08:01.458Z,4.50
2018-12-04T21:10:29.003Z,4.50
2018-12-04T21:12:56.525Z,4.50
2018-12-04T21:15:24.183Z,4.50
2018-12-04T21:17:51.730Z,4.50
2018-12-04T21:20:21.490Z,4.40
2018-12-04T21:22:49.012Z,4.40
2018-12-04T21:25:16.765Z,4.40
2018-12-04T21:27:49.863Z,4.40
2018-12-04T21:30:23.554Z,4.40
2018-12-04T21:32:57.240Z,4.40
2018-12-04T21:38:34.258Z,4.40
2018-12-04T21:41:03.902Z,4.40
2018-12-04T21:43:37.907Z,4.40
2018-12-04T21:46:11.307Z,4.40
2018-12-04T21:48:39.193Z,4.40
2018-12-04T21:51:07.089Z,4.40
2018-12-04T21:53:34.747Z,4.30
2018-12-04T21:56:02.399Z,4.30
2018-12-04T21:58:30.167Z,4.40
2018-12-04T22:00:58.346Z,4.30
2018-12-04T22:03:26.064Z,4.30
2018-12-04T22:05:53.608Z,4.40
2018-12-04T22:08:22.161Z,4.40
2018-12-04T22:10:49.733Z,4.40
2018-12-04T22:13:17.683Z,4.30
2018-12-04T22:15:45.397Z,4.30
2018-12-04T22:18:13.411Z,4.30
2018-12-04T22:20:40.965Z,4.30
2018-12-04T22:23:08.722Z,4.30
2018-12-04T22:25:36.259Z,4.30
2018-12-04T22:28:04.011Z,4.30
2018-12-04T22:30:31.555Z,4.40
2018-12-04T22:32:59.279Z,4.40
2018-12-04T22:35:26.813Z,4.40
2018-12-04T22:37:54.663Z,4.40
2018-12-04T22:40:22.205Z,4.30
2018-12-04T22:42:50.430Z,4.30
2018-12-04T22:45:23.837Z,4.30
2018-12-04T22:47:51.376Z,4.30
2018-12-04T22:50:19.354Z,4.30
2018-12-04T22:52:46.908Z,4.20
2018-12-04T22:55:14.684Z,4.20
2018-12-04T22:57:42.201Z,4.20
2018-12-04T23:00:32.536Z,4.20
2018-12-04T23:03:00.231Z,4.20
2018-12-04T23:05:28.059Z,4.10
2018-12-04T23:07:56.075Z,4.10
2018-12-04T23:10:23.803Z,4.10
2018-12-04T23:12:51.649Z,4.10
2018-12-04T23:15:19.325Z,4.10
2018-12-04T23:17:46.855Z,4.10
2018-12-04T23:20:15.043Z,4.10
2018-12-04T23:22:42.733Z,4.00
2018-12-04T23:25:10.589Z,4.00
2018-12-04T23:27:38.125Z,4.00
2018-12-04T23:30:06.732Z,4.00
2018-12-04T23:32:34.262Z,4.10
2018-12-04T23:35:02.071Z,4.10
2018-12-04T23:37:29.601Z,4.10
2018-12-04T23:39:57.580Z,4.10
2018-12-04T23:42:25.101Z,4.10
2018-12-04T23:44:52.896Z,4.00
2018-12-04T23:47:20.423Z,4.00
2018-12-04T23:49:48.216Z,4.10
2018-12-04T23:52:15.760Z,4.10
2018-12-04T23:54:43.509Z,4.10
2018-12-04T23:57:11.044Z,4.10
2018-12-04T23:59:39.085Z,4.10
